Time;durP1;ratioP1;P1;durP2;ratioP2;P2;SDS_P1;SDS_P2;PMS_P1;PMS_P2;Temp;Humidity;BMP_temperature;BMP_pressure;BME280_temperature;BME280_humidity;BME280_pressure;Samples;Min_cycle;Max_cycle;Signal;HPM_P1;HPM_P2
2022/02/14 00:00:42;;;;;;;8.60;7.65;;;;;;;;;;10239583;28;20088;-62
2022/02/14 00:05:41;;;;;;;12.57;7.00;;;;;;;;;;10240284;28;20084;-65
2022/02/14 00:10:41;;;;;;;10.95;6.72;;;;;;;;;;10241371;28;20447;-64
2022/02/14 00:15:41;;;;;;;10.02;6.75;;;;;;;;;;10240081;28;20107;-64
2022/02/14 00:20:40;;;;;;;11.15;7.00;;;;;;;;;;10240339;28;20470;-65
2022/02/14 00:25:39;;;;;;;9.75;5.80;;;;;;;;;;10239649;28;20127;-64
2022/02/14 00:30:37;;;;;;;8.98;5.55;;;;;;;;;;10241590;28;20068;-64
2022/02/14 00:35:36;;;;;;;22.63;13.05;;;;;;;;;;10240502;28;20076;-63
2022/02/14 00:40:36;;;;;;;44.78;26.10;;;;;;;;;;10241751;28;20088;-64
2022/02/14 00:45:34;;;;;;;42.97;26.52;;;;;;;;;;10241616;28;20503;-63
2022/02/14 00:50:33;;;;;;;48.05;26.00;;;;;;;;;;10247638;28;20076;-63
2022/02/14 00:55:32;;;;;;;42.13;25.20;;;;;;;;;;10244225;28;20045;-64
2022/02/14 01:00:32;;;;;;;36.35;24.08;;;;;;;;;;10245030;28;20119;-64
2022/02/14 01:05:34;;;;;;;26.45;17.10;;;;;;;;;;10257037;28;20041;-64
2022/02/14 01:10:32;;;;;;;9.27;7.63;;;;;;;;;;10241462;28;20072;-64
2022/02/14 01:15:32;;;;;;;11.52;6.32;;;;;;;;;;10240884;28;20072;-64
2022/02/14 01:20:30;;;;;;;7.45;5.72;;;;;;;;;;10246109;28;20107;-64
2022/02/14 01:25:29;;;;;;;6.88;5.28;;;;;;;;;;10247352;28;20072;-64
2022/02/14 01:30:27;;;;;;;8.30;5.20;;;;;;;;;;10252832;28;20116;-63
2022/02/14 01:35:27;;;;;;;8.98;5.80;;;;;;;;;;10245539;28;20069;-64
2022/02/14 01:40:27;;;;;;;8.55;5.65;;;;;;;;;;10248340;28;20073;-63
2022/02/14 01:45:25;;;;;;;9.07;6.25;;;;;;;;;;10250152;28;20088;-63
2022/02/14 01:50:24;;;;;;;11.77;6.97;;;;;;;;;;10250130;28;20073;-63
2022/02/14 01:55:23;;;;;;;11.90;6.55;;;;;;;;;;10247929;28;20068;-62
2022/02/14 02:00:22;;;;;;;15.43;8.20;;;;;;;;;;10249613;28;20079;-63
2022/02/14 02:05:20;;;;;;;13.60;7.22;;;;;;;;;;10249398;28;20088;-63
2022/02/14 02:10:19;;;;;;;10.75;6.45;;;;;;;;;;10248106;28;20083;-63
2022/02/14 02:15:18;;;;;;;10.18;6.82;;;;;;;;;;10247506;28;20085;-63
2022/02/14 02:20:17;;;;;;;9.43;6.28;;;;;;;;;;10249260;28;20100;-63
2022/02/14 02:25:17;;;;;;;10.88;7.13;;;;;;;;;;10250617;28;20120;-64
2022/02/14 02:30:17;;;;;;;15.73;10.20;;;;;;;;;;10245894;28;20074;-64
2022/02/14 02:35:16;;;;;;;22.48;14.32;;;;;;;;;;10244846;28;20468;-64
2022/02/14 02:40:14;;;;;;;27.38;18.98;;;;;;;;;;10245342;28;20073;-64
2022/02/14 02:45:14;;;;;;;78.93;50.67;;;;;;;;;;10246087;28;20083;-65
2022/02/14 02:50:12;;;;;;;35.38;24.75;;;;;;;;;;10244965;28;20510;-64
2022/02/14 02:55:12;;;;;;;24.30;17.92;;;;;;;;;;10244088;28;20072;-65
2022/02/14 03:00:11;;;;;;;26.95;22.17;;;;;;;;;;10245898;28;20084;-64
2022/02/14 03:05:11;;;;;;;23.05;16.40;;;;;;;;;;10246320;28;20122;-64
2022/02/14 03:10:09;;;;;;;18.80;14.43;;;;;;;;;;10252343;28;20064;-64
2022/02/14 03:15:08;;;;;;;14.88;11.85;;;;;;;;;;10248053;28;20080;-64
2022/02/14 03:20:07;;;;;;;34.47;21.73;;;;;;;;;;10250729;28;20084;-65
2022/02/14 03:25:07;;;;;;;27.67;19.92;;;;;;;;;;10247884;28;20478;-64
2022/02/14 03:30:06;;;;;;;34.97;23.05;;;;;;;;;;10249083;28;20069;-64
2022/02/14 03:35:04;;;;;;;30.52;17.15;;;;;;;;;;10239450;28;20065;-64
2022/02/14 03:40:03;;;;;;;16.40;12.15;;;;;;;;;;10246590;28;20825;-64
2022/02/14 03:45:05;;;;;;;18.45;12.63;;;;;;;;;;10243491;28;20099;-64
2022/02/14 03:50:03;;;;;;;17.25;11.27;;;;;;;;;;10244117;28;20064;-65
2022/02/14 03:55:02;;;;;;;20.67;12.30;;;;;;;;;;10240912;28;20064;-65
2022/02/14 04:00:00;;;;;;;14.68;11.27;;;;;;;;;;10246437;28;20483;-64
2022/02/14 04:05:10;;;;;;;16.92;12.75;;;;;;;;;;10242357;28;20079;-64
2022/02/14 04:10:10;;;;;;;19.80;16.20;;;;;;;;;;10248383;28;20076;-64
2022/02/14 04:15:11;;;;;;;18.48;14.88;;;;;;;;;;10248179;28;20064;-63
2022/02/14 04:20:11;;;;;;;18.90;13.55;;;;;;;;;;10243082;28;20068;-65
2022/02/14 04:25:10;;;;;;;38.83;20.35;;;;;;;;;;10240260;28;20096;-64
2022/02/14 04:30:09;;;;;;;12.77;8.93;;;;;;;;;;10243524;28;20483;-65
2022/02/14 04:35:08;;;;;;;10.60;8.82;;;;;;;;;;10242029;28;20068;-65
2022/02/14 04:40:08;;;;;;;17.83;9.95;;;;;;;;;;10245661;28;20081;-64
2022/02/14 04:45:07;;;;;;;19.80;14.85;;;;;;;;;;10251113;28;20053;-65
2022/02/14 04:50:05;;;;;;;20.92;14.30;;;;;;;;;;10250567;28;20068;-64
2022/02/14 04:55:04;;;;;;;84.18;40.85;;;;;;;;;;10265651;28;20431;-65
2022/02/14 05:00:04;;;;;;;24.25;17.38;;;;;;;;;;10249055;28;20471;-64
2022/02/14 05:05:02;;;;;;;29.92;18.70;;;;;;;;;;10250023;28;20069;-65
2022/02/14 05:10:00;;;;;;;28.35;18.10;;;;;;;;;;10248181;28;20065;-64
2022/02/14 05:14:59;;;;;;;20.58;15.60;;;;;;;;;;10260962;28;20068;-64
2022/02/14 05:19:58;;;;;;;24.70;15.52;;;;;;;;;;10264778;28;20075;-67
2022/02/14 05:24:57;;;;;;;26.17;18.00;;;;;;;;;;10252077;28;20495;-65
2022/02/14 05:29:55;;;;;;;22.15;17.67;;;;;;;;;;10251156;28;20068;-64
2022/02/14 05:34:56;;;;;;;24.80;15.85;;;;;;;;;;10252142;28;20096;-65
2022/02/14 05:39:56;;;;;;;23.55;15.10;;;;;;;;;;10247642;28;20069;-66
2022/02/14 05:44:54;;;;;;;26.63;17.77;;;;;;;;;;10252518;28;20459;-65
2022/02/14 05:49:52;;;;;;;28.80;20.75;;;;;;;;;;10248247;28;20079;-65
2022/02/14 05:54:51;;;;;;;57.50;30.55;;;;;;;;;;10259778;28;20471;-65
2022/02/14 05:59:50;;;;;;;53.88;35.65;;;;;;;;;;10245023;28;20080;-65
2022/02/14 06:04:49;;;;;;;69.93;46.42;;;;;;;;;;10247521;28;20088;-64
2022/02/14 06:09:47;;;;;;;71.30;39.63;;;;;;;;;;10243894;28;20069;-64
2022/02/14 06:14:45;;;;;;;24.02;18.02;;;;;;;;;;10239206;28;20077;-65
2022/02/14 06:19:45;;;;;;;45.00;30.45;;;;;;;;;;10247499;28;20080;-64
2022/02/14 06:24:43;;;;;;;56.97;37.20;;;;;;;;;;10245237;28;20076;-65
2022/02/14 06:29:42;;;;;;;47.75;28.08;;;;;;;;;;10247576;28;20061;-64
2022/02/14 06:34:40;;;;;;;66.68;40.42;;;;;;;;;;10249774;28;20460;-64
2022/02/14 06:39:40;;;;;;;291.52;139.77;;;;;;;;;;10250140;28;20457;-65
2022/02/14 06:44:38;;;;;;;28.25;21.42;;;;;;;;;;10266645;28;20076;-65
2022/02/14 06:49:37;;;;;;;24.27;17.20;;;;;;;;;;10266419;28;20061;-64
2022/02/14 06:54:35;;;;;;;96.90;42.40;;;;;;;;;;10254529;28;20084;-64
2022/02/14 06:59:35;;;;;;;128.75;55.83;;;;;;;;;;10251137;28;20084;-65
2022/02/14 07:04:33;;;;;;;35.67;21.33;;;;;;;;;;10249485;28;20084;-66
2022/02/14 07:09:31;;;;;;;21.65;14.50;;;;;;;;;;10241369;28;20471;-66
2022/02/14 07:14:30;;;;;;;35.45;22.35;;;;;;;;;;10236029;28;20065;-66
2022/02/14 07:19:29;;;;;;;44.92;26.92;;;;;;;;;;10241167;28;20073;-66
2022/02/14 07:24:28;;;;;;;40.45;23.88;;;;;;;;;;10242254;28;20496;-66
2022/02/14 07:29:26;;;;;;;21.60;14.20;;;;;;;;;;10246292;28;20064;-66
2022/02/14 07:34:24;;;;;;;24.35;16.08;;;;;;;;;;10251056;28;20492;-66
2022/02/14 07:39:24;;;;;;;27.30;17.35;;;;;;;;;;10248303;28;20083;-65
2022/02/14 07:44:22;;;;;;;19.23;13.60;;;;;;;;;;10241933;28;20069;-65
2022/02/14 07:49:21;;;;;;;16.95;11.63;;;;;;;;;;10250297;28;20365;-65
2022/02/14 07:54:20;;;;;;;22.25;14.70;;;;;;;;;;10243588;28;20076;-65
2022/02/14 07:59:21;;;;;;;17.27;12.48;;;;;;;;;;10242527;28;20157;-65
2022/02/14 08:04:19;;;;;;;26.88;16.02;;;;;;;;;;10242068;28;20072;-65
2022/02/14 08:09:18;;;;;;;28.58;20.88;;;;;;;;;;10243820;28;20482;-65
2022/02/14 08:14:18;;;;;;;31.75;18.63;;;;;;;;;;10243606;28;20076;-65
2022/02/14 08:19:18;;;;;;;27.35;15.52;;;;;;;;;;10245054;28;20080;-65
2022/02/14 08:24:16;;;;;;;17.85;12.95;;;;;;;;;;10244186;28;20065;-64
2022/02/14 08:29:15;;;;;;;21.10;11.30;;;;;;;;;;10244121;28;20087;-65
2022/02/14 08:34:15;;;;;;;19.10;13.35;;;;;;;;;;10244749;28;20057;-64
2022/02/14 08:39:17;;;;;;;20.48;11.85;;;;;;;;;;10260205;28;20072;-65
2022/02/14 08:44:15;;;;;;;15.95;10.77;;;;;;;;;;10247797;28;20110;-65
2022/02/14 08:49:13;;;;;;;19.77;13.23;;;;;;;;;;10248517;28;20073;-65
2022/02/14 08:54:12;;;;;;;17.30;12.40;;;;;;;;;;10246613;28;20069;-65
2022/02/14 08:59:19;;;;;;;21.27;13.55;;;;;;;;;;10241237;28;20080;-66
2022/02/14 09:04:17;;;;;;;21.65;13.25;;;;;;;;;;10244373;28;20065;-65
2022/02/14 09:09:16;;;;;;;25.70;13.27;;;;;;;;;;10238516;28;20073;-65
2022/02/14 09:14:15;;;;;;;19.17;14.50;;;;;;;;;;10238360;28;20121;-65
2022/02/14 09:19:14;;;;;;;20.98;15.95;;;;;;;;;;10238847;28;20076;-66
2022/02/14 09:24:13;;;;;;;36.00;21.30;;;;;;;;;;10239645;28;20482;-66
2022/02/14 09:29:12;;;;;;;30.98;20.05;;;;;;;;;;10239075;28;20061;-66
2022/02/14 09:34:13;;;;;;;28.95;20.02;;;;;;;;;;10240372;28;20080;-66
2022/02/14 09:39:11;;;;;;;24.33;17.40;;;;;;;;;;10247626;28;20102;-66
2022/02/14 09:44:09;;;;;;;36.15;17.60;;;;;;;;;;10247000;28;20072;-66
2022/02/14 09:49:08;;;;;;;23.58;15.27;;;;;;;;;;10247187;28;20475;-66
2022/02/14 09:54:08;;;;;;;34.08;16.13;;;;;;;;;;10248219;28;20084;-66
2022/02/14 09:59:06;;;;;;;32.47;21.13;;;;;;;;;;10247930;28;20064;-66
2022/02/14 10:04:10;;;;;;;24.73;18.10;;;;;;;;;;10249889;28;20456;-66
2022/02/14 10:09:11;;;;;;;26.75;17.75;;;;;;;;;;10252927;28;20109;-66
2022/02/14 10:14:14;;;;;;;19.42;14.52;;;;;;;;;;10262829;28;20441;-66
2022/02/14 10:19:15;;;;;;;25.05;16.95;;;;;;;;;;10251488;28;20088;-66
2022/02/14 10:24:16;;;;;;;21.80;15.02;;;;;;;;;;10244475;28;20076;-67
2022/02/14 10:29:15;;;;;;;35.20;17.13;;;;;;;;;;10247951;28;20454;-66
2022/02/14 10:34:13;;;;;;;17.73;12.30;;;;;;;;;;10245453;28;20065;-66
2022/02/14 10:39:13;;;;;;;30.45;18.42;;;;;;;;;;10248649;28;20068;-66
2022/02/14 10:44:14;;;;;;;12.73;10.57;;;;;;;;;;10245519;28;20072;-66
2022/02/14 10:49:13;;;;;;;14.57;10.68;;;;;;;;;;10245120;28;20084;-66
2022/02/14 10:54:27;;;;;;;13.48;9.00;;;;;;;;;;10249297;28;20077;-67
2022/02/14 10:59:29;;;;;;;18.65;11.40;;;;;;;;;;10248104;28;20072;-67
2022/02/14 11:04:27;;;;;;;13.73;10.77;;;;;;;;;;10246282;28;20069;-66
2022/02/14 11:09:28;;;;;;;20.88;14.23;;;;;;;;;;10252511;28;20069;-66
2022/02/14 11:14:29;;;;;;;13.88;10.38;;;;;;;;;;10247266;28;20045;-66
2022/02/14 11:19:28;;;;;;;12.75;10.35;;;;;;;;;;10249961;28;20079;-64
2022/02/14 11:24:29;;;;;;;12.20;9.60;;;;;;;;;;10250583;28;20088;-65
2022/02/14 11:29:40;;;;;;;12.05;8.65;;;;;;;;;;10253856;28;20080;-66
2022/02/14 11:34:51;;;;;;;11.95;10.35;;;;;;;;;;10248206;28;20498;-65
2022/02/14 11:39:49;;;;;;;16.05;10.38;;;;;;;;;;10243299;28;20091;-65
2022/02/14 11:45:08;;;;;;;17.30;9.50;;;;;;;;;;10242646;28;20076;-66
2022/02/14 11:50:07;;;;;;;13.63;9.52;;;;;;;;;;10243256;28;20447;-66
2022/02/14 11:55:08;;;;;;;17.85;7.53;;;;;;;;;;10243650;28;20075;-65
2022/02/14 12:00:27;;;;;;;12.18;10.00;;;;;;;;;;10239908;28;20064;-66
2022/02/14 12:05:38;;;;;;;16.27;11.77;;;;;;;;;;10240365;28;20069;-66
2022/02/14 12:10:46;;;;;;;13.57;9.00;;;;;;;;;;10247505;28;20494;-65
2022/02/14 12:21:04;;;;;;;15.13;8.35;;;;;;;;;;10239851;28;20086;-65
2022/02/14 12:26:24;;;;;;;14.55;8.20;;;;;;;;;;10240754;28;20084;-65
2022/02/14 12:31:24;;;;;;;20.30;14.70;;;;;;;;;;10241433;28;20061;-66
2022/02/14 12:36:22;;;;;;;18.10;10.70;;;;;;;;;;10243161;28;20127;-66
2022/02/14 12:41:20;;;;;;;13.95;9.23;;;;;;;;;;10239691;28;20290;-66
2022/02/14 12:46:20;;;;;;;11.48;7.72;;;;;;;;;;10243172;28;20065;-66
2022/02/14 12:51:23;;;;;;;9.70;8.20;;;;;;;;;;10242810;28;20088;-66
2022/02/14 12:56:23;;;;;;;8.07;6.80;;;;;;;;;;10244695;28;20459;-67
2022/02/14 13:01:25;;;;;;;24.52;17.08;;;;;;;;;;10249554;28;20068;-66
2022/02/14 13:06:40;;;;;;;16.30;12.20;;;;;;;;;;10254465;28;20463;-66
2022/02/14 13:11:42;;;;;;;14.43;11.27;;;;;;;;;;10251184;28;20065;-67
2022/02/14 13:16:41;;;;;;;18.70;12.63;;;;;;;;;;10256223;28;20459;-66
2022/02/14 13:21:44;;;;;;;12.68;9.15;;;;;;;;;;10250170;28;20073;-67
2022/02/14 13:26:42;;;;;;;10.50;8.43;;;;;;;;;;10253370;28;20068;-67
2022/02/14 13:31:40;;;;;;;83.20;46.25;;;;;;;;;;10249915;28;20068;-66
2022/02/14 13:36:50;;;;;;;22.23;12.98;;;;;;;;;;10246966;28;20069;-66
2022/02/14 13:41:48;;;;;;;15.18;8.75;;;;;;;;;;10248149;28;20084;-66
2022/02/14 13:46:47;;;;;;;22.70;12.00;;;;;;;;;;10248441;28;20077;-66
2022/02/14 13:51:45;;;;;;;30.35;19.27;;;;;;;;;;10249243;28;20073;-67
2022/02/14 13:56:46;;;;;;;10.40;6.85;;;;;;;;;;10249529;28;20474;-66
2022/02/14 14:01:45;;;;;;;29.30;13.15;;;;;;;;;;10246979;28;20458;-66
2022/02/14 14:06:43;;;;;;;34.40;22.15;;;;;;;;;;10249211;28;20053;-67
2022/02/14 14:11:42;;;;;;;19.65;11.45;;;;;;;;;;10248947;28;20092;-66
2022/02/14 14:16:41;;;;;;;18.27;12.45;;;;;;;;;;10252289;28;20064;-66
2022/02/14 14:21:40;;;;;;;27.55;16.48;;;;;;;;;;10246339;28;20083;-66
2022/02/14 14:26:38;;;;;;;17.70;10.75;;;;;;;;;;10251518;28;20069;-66
2022/02/14 14:31:37;;;;;;;26.65;15.73;;;;;;;;;;10247015;28;20065;-66
2022/02/14 14:36:37;;;;;;;43.17;23.42;;;;;;;;;;10245186;28;20064;-66
2022/02/14 14:41:39;;;;;;;30.02;20.17;;;;;;;;;;10243949;28;20038;-66
2022/02/14 14:46:37;;;;;;;46.38;28.38;;;;;;;;;;10243853;28;20077;-66
2022/02/14 14:51:37;;;;;;;34.25;23.33;;;;;;;;;;10246445;28;20048;-66
2022/02/14 14:56:35;;;;;;;27.17;18.33;;;;;;;;;;10242578;28;20057;-66
2022/02/14 15:01:34;;;;;;;22.75;16.60;;;;;;;;;;10242601;28;20098;-66
2022/02/14 15:06:32;;;;;;;35.05;19.85;;;;;;;;;;10242647;28;20077;-65
2022/02/14 15:11:32;;;;;;;42.95;26.33;;;;;;;;;;10241873;28;20468;-66
2022/02/14 15:16:31;;;;;;;52.83;27.95;;;;;;;;;;10243464;28;20440;-66
2022/02/14 15:21:29;;;;;;;29.55;18.35;;;;;;;;;;10246498;28;20126;-66
2022/02/14 15:26:28;;;;;;;31.48;22.60;;;;;;;;;;10241951;28;20099;-66
2022/02/14 15:31:28;;;;;;;40.95;24.98;;;;;;;;;;10246485;28;20065;-66
2022/02/14 15:36:27;;;;;;;31.10;20.70;;;;;;;;;;10243417;28;20499;-66
2022/02/14 15:41:25;;;;;;;31.77;21.90;;;;;;;;;;10246902;28;20451;-66
2022/02/14 15:46:24;;;;;;;38.85;26.30;;;;;;;;;;10246087;28;20080;-66
2022/02/14 15:51:28;;;;;;;48.42;29.13;;;;;;;;;;10249048;28;20064;-66
2022/02/14 15:56:26;;;;;;;46.95;27.55;;;;;;;;;;10241934;28;20434;-67
2022/02/14 16:01:24;;;;;;;35.47;21.55;;;;;;;;;;10246305;28;20168;-66
2022/02/14 16:06:24;;;;;;;172.45;99.55;;;;;;;;;;10243220;28;20077;-66
2022/02/14 16:11:25;;;;;;;134.18;79.75;;;;;;;;;;10239750;28;20073;-66
2022/02/14 16:16:26;;;;;;;162.63;99.43;;;;;;;;;;10240174;28;20048;-66
2022/02/14 16:21:24;;;;;;;179.57;115.55;;;;;;;;;;10244656;28;20084;-66
2022/02/14 16:26:26;;;;;;;142.05;91.63;;;;;;;;;;10253223;28;20081;-66
2022/02/14 16:31:26;;;;;;;114.55;79.32;;;;;;;;;;10240184;28;20083;-66
2022/02/14 16:36:24;;;;;;;56.90;36.55;;;;;;;;;;10253242;28;20506;-66
2022/02/14 16:41:23;;;;;;;52.80;33.25;;;;;;;;;;10243403;28;20072;-68
2022/02/14 16:46:23;;;;;;;71.72;41.50;;;;;;;;;;10247252;28;20076;-66
2022/02/14 16:51:24;;;;;;;44.95;28.83;;;;;;;;;;10252196;28;20060;-66
2022/02/14 16:56:23;;;;;;;41.80;27.48;;;;;;;;;;10255359;28;20072;-66
2022/02/14 17:01:21;;;;;;;29.52;21.13;;;;;;;;;;10250296;28;20068;-66
2022/02/14 17:06:20;;;;;;;31.90;25.23;;;;;;;;;;10250194;28;20156;-65
2022/02/14 17:11:19;;;;;;;27.83;19.70;;;;;;;;;;10249558;28;20084;-66
2022/02/14 17:16:17;;;;;;;26.25;19.00;;;;;;;;;;10246837;28;20053;-66
2022/02/14 17:21:16;;;;;;;24.35;17.98;;;;;;;;;;10250288;28;20429;-66
2022/02/14 17:26:15;;;;;;;23.95;17.17;;;;;;;;;;10249840;28;20075;-66
2022/02/14 17:31:14;;;;;;;23.92;15.88;;;;;;;;;;10245654;28;20077;-66
2022/02/14 17:36:13;;;;;;;23.75;17.45;;;;;;;;;;10245827;28;20061;-66
2022/02/14 17:41:12;;;;;;;27.58;18.63;;;;;;;;;;10245149;28;20060;-65
2022/02/14 17:46:10;;;;;;;26.92;18.92;;;;;;;;;;10245909;28;20596;-66
2022/02/14 17:51:10;;;;;;;72.85;46.90;;;;;;;;;;10246618;28;20459;-65
2022/02/14 17:56:09;;;;;;;61.85;39.28;;;;;;;;;;10246878;28;20076;-65
2022/02/14 18:01:07;;;;;;;25.02;17.13;;;;;;;;;;10256270;28;20071;-66
2022/02/14 18:06:05;;;;;;;72.68;39.30;;;;;;;;;;10248640;28;20493;-66
2022/02/14 18:11:05;;;;;;;29.20;21.98;;;;;;;;;;10246827;28;20079;-66
2022/02/14 18:16:04;;;;;;;22.67;16.17;;;;;;;;;;10248610;28;20125;-66
2022/02/14 18:21:02;;;;;;;26.08;16.30;;;;;;;;;;10249445;28;20092;-67
2022/02/14 18:26:01;;;;;;;36.97;25.17;;;;;;;;;;10248283;28;20497;-68
2022/02/14 18:31:00;;;;;;;39.85;24.20;;;;;;;;;;10253669;28;20159;-66
2022/02/14 18:35:59;;;;;;;59.42;40.35;;;;;;;;;;10254403;28;20584;-67
2022/02/14 18:40:57;;;;;;;30.13;19.63;;;;;;;;;;10245396;28;20076;-67
2022/02/14 18:46:03;;;;;;;30.08;18.95;;;;;;;;;;10246135;28;20087;-67
2022/02/14 18:51:04;;;;;;;29.55;20.17;;;;;;;;;;10245091;28;20080;-66
2022/02/14 18:56:03;;;;;;;31.23;19.98;;;;;;;;;;10244192;28;20081;-67
2022/02/14 19:01:03;;;;;;;35.50;21.20;;;;;;;;;;10248070;28;20758;-67
2022/02/14 19:06:22;;;;;;;34.05;21.48;;;;;;;;;;10251804;28;20061;-67
2022/02/14 19:11:21;;;;;;;31.60;23.35;;;;;;;;;;10249103;28;20052;-67
2022/02/14 19:16:20;;;;;;;34.72;24.70;;;;;;;;;;10254055;28;20061;-66
2022/02/14 19:21:19;;;;;;;68.05;37.03;;;;;;;;;;10245127;28;20073;-66
2022/02/14 19:26:17;;;;;;;36.38;26.33;;;;;;;;;;10247115;28;20152;-67
2022/02/14 19:31:19;;;;;;;32.45;22.60;;;;;;;;;;10251739;28;20503;-66
2022/02/14 19:36:20;;;;;;;29.23;17.40;;;;;;;;;;10248006;28;20682;-66
2022/02/14 19:41:18;;;;;;;23.55;16.23;;;;;;;;;;10248724;28;20069;-65
2022/02/14 19:46:17;;;;;;;43.40;26.73;;;;;;;;;;10250759;28;20088;-66
2022/02/14 19:51:16;;;;;;;36.33;25.58;;;;;;;;;;10244495;28;20057;-65
2022/02/14 19:56:15;;;;;;;34.15;23.55;;;;;;;;;;10243821;28;20065;-66
2022/02/14 20:01:13;;;;;;;37.13;27.40;;;;;;;;;;10243533;28;20068;-66
2022/02/14 20:06:13;;;;;;;25.30;19.20;;;;;;;;;;10242274;28;20556;-65
2022/02/14 20:11:11;;;;;;;31.55;22.58;;;;;;;;;;10239483;28;20048;-66
2022/02/14 20:16:11;;;;;;;43.38;27.60;;;;;;;;;;10253349;28;20510;-66
2022/02/14 20:21:09;;;;;;;61.20;36.17;;;;;;;;;;10240620;28;20068;-66
2022/02/14 20:26:07;;;;;;;30.75;20.02;;;;;;;;;;10242243;28;20069;-66
2022/02/14 20:31:06;;;;;;;30.45;20.25;;;;;;;;;;10239140;28;20076;-65
2022/02/14 20:36:06;;;;;;;22.42;14.75;;;;;;;;;;10241997;28;20071;-66
2022/02/14 20:41:04;;;;;;;22.52;16.48;;;;;;;;;;10240558;28;20064;-66
2022/02/14 20:46:02;;;;;;;26.65;18.40;;;;;;;;;;10241678;28;21610;-65
2022/02/14 20:51:01;;;;;;;26.00;15.98;;;;;;;;;;10248789;28;20076;-66
2022/02/14 20:56:00;;;;;;;51.65;31.63;;;;;;;;;;10243579;28;20061;-66
2022/02/14 21:01:01;;;;;;;33.33;21.70;;;;;;;;;;10242792;28;20077;-65
2022/02/14 21:05:59;;;;;;;29.80;18.30;;;;;;;;;;10242232;28;20083;-65
2022/02/14 21:10:58;;;;;;;27.88;16.52;;;;;;;;;;10246323;28;20414;-66
2022/02/14 21:15:57;;;;;;;26.30;16.85;;;;;;;;;;10244457;28;20080;-65
2022/02/14 21:20:56;;;;;;;22.13;13.70;;;;;;;;;;10246887;28;20057;-66
2022/02/14 21:25:54;;;;;;;20.05;14.25;;;;;;;;;;10249986;28;20453;-66
2022/02/14 21:30:53;;;;;;;15.65;10.93;;;;;;;;;;10247446;28;20076;-66
2022/02/14 21:35:54;;;;;;;20.70;12.43;;;;;;;;;;10261984;28;20159;-65
2022/02/14 21:40:53;;;;;;;15.30;11.98;;;;;;;;;;10250408;28;20594;-65
2022/02/14 21:45:51;;;;;;;14.55;9.63;;;;;;;;;;10249929;28;20072;-65
2022/02/14 21:50:50;;;;;;;24.52;17.30;;;;;;;;;;10249444;28;20069;-67
2022/02/14 21:55:50;;;;;;;17.42;12.60;;;;;;;;;;10250173;28;20082;-65
2022/02/14 22:00:48;;;;;;;16.45;9.88;;;;;;;;;;10252545;28;20069;-65
2022/02/14 22:11:08;;;;;;;20.33;11.65;;;;;;;;;;10249598;28;20498;-67
2022/02/14 22:16:08;;;;;;;39.67;26.10;;;;;;;;;;10250939;28;20445;-66
2022/02/14 22:21:09;;;;;;;49.60;34.20;;;;;;;;;;10247705;28;20067;-65
2022/02/14 22:26:12;;;;;;;86.72;54.03;;;;;;;;;;10257632;28;20079;-65
2022/02/14 22:31:11;;;;;;;60.08;35.80;;;;;;;;;;10248173;28;20079;-66
2022/02/14 22:36:09;;;;;;;51.50;31.27;;;;;;;;;;10245119;28;20537;-66
2022/02/14 22:41:09;;;;;;;44.85;28.35;;;;;;;;;;10261409;28;20080;-66
2022/02/14 22:46:09;;;;;;;47.25;27.83;;;;;;;;;;10244464;28;20081;-65
2022/02/14 22:51:08;;;;;;;42.63;26.60;;;;;;;;;;10245652;28;20081;-66
2022/02/14 22:56:06;;;;;;;34.45;22.70;;;;;;;;;;10246784;28;20068;-65
2022/02/14 23:01:05;;;;;;;36.72;23.65;;;;;;;;;;10242551;28;20463;-65
2022/02/14 23:06:05;;;;;;;37.28;25.33;;;;;;;;;;10245880;28;20067;-65
2022/02/14 23:16:29;;;;;;;36.72;24.08;;;;;;;;;;10208213;28;20319;-65
2022/02/14 23:21:29;;;;;;;44.92;26.90;;;;;;;;;;10242392;28;20515;-65
2022/02/14 23:26:28;;;;;;;37.95;26.67;;;;;;;;;;10242235;28;20545;-66
2022/02/14 23:31:26;;;;;;;36.60;21.50;;;;;;;;;;10242310;28;20069;-66
2022/02/14 23:36:25;;;;;;;27.88;18.45;;;;;;;;;;10244124;28;20160;-65
2022/02/14 23:41:26;;;;;;;28.80;17.08;;;;;;;;;;10240124;28;20081;-66
2022/02/14 23:46:25;;;;;;;24.60;16.42;;;;;;;;;;10245678;28;20085;-65
2022/02/14 23:51:23;;;;;;;14.98;11.30;;;;;;;;;;10244143;28;20113;-67
2022/02/14 23:56:22;;;;;;;22.23;15.05;;;;;;;;;;10244178;28;20069;-66
